Time;durP1;ratioP1;P1;durP2;ratioP2;P2;SDS_P1;SDS_P2;PMS_P1;PMS_P2;Temp;Humidity;BMP_temperature;BMP_pressure;BME280_temperature;BME280_humidity;BME280_pressure;Samples;Min_cycle;Max_cycle;Signal;HPM_P1;HPM_P2
2022/09/06 00:02:31;;;;;;;2.90;2.40;;;16.80;1.00;;;;;;6286466;28;20719;-54
2022/09/06 00:05:38;;;;;;;3.20;2.53;;;16.70;1.00;;;;;;6289326;28;20468;-54
2022/09/06 00:08:42;;;;;;;2.50;2.30;;;16.70;1.00;;;;;;6287685;28;20240;-53
2022/09/06 00:11:45;;;;;;;2.23;2.13;;;16.70;1.00;;;;;;6294752;28;20254;-55
2022/09/06 00:14:49;;;;;;;2.57;2.37;;;16.70;1.00;;;;;;6294292;28;20229;-54
2022/09/06 00:17:54;;;;;;;2.87;2.20;;;16.60;1.00;;;;;;6267744;28;20463;-54
2022/09/06 00:20:57;;;;;;;2.60;2.50;;;16.60;1.00;;;;;;6289226;28;20732;-54
2022/09/06 00:24:00;;;;;;;4.40;2.47;;;16.50;1.00;;;;;;6286827;28;20268;-54
2022/09/06 00:27:04;;;;;;;3.00;2.73;;;16.50;1.00;;;;;;6265656;28;20234;-55
2022/09/06 00:30:08;;;;;;;2.60;2.40;;;16.50;1.00;;;;;;6268565;28;20358;-54
2022/09/06 00:33:13;;;;;;;2.50;2.30;;;16.40;1.00;;;;;;6277185;28;20401;-55
2022/09/06 00:36:17;;;;;;;2.00;1.90;;;16.40;1.00;;;;;;6289400;28;20375;-54
2022/09/06 00:39:20;;;;;;;3.70;2.40;;;16.30;1.00;;;;;;6290379;28;20248;-55
2022/09/06 00:42:22;;;;;;;2.57;2.40;;;16.30;1.00;;;;;;6260900;28;20238;-54
2022/09/06 00:45:27;;;;;;;2.67;2.13;;;16.20;1.00;;;;;;6261082;28;20323;-55
2022/09/06 00:48:32;;;;;;;2.70;2.10;;;16.20;1.00;;;;;;6263677;28;20237;-55
2022/09/06 00:51:36;;;;;;;2.33;2.23;;;16.20;1.00;;;;;;6285716;28;20244;-54
2022/09/06 00:54:40;;;;;;;2.10;2.00;;;16.10;1.00;;;;;;6278623;28;20321;-54
2022/09/06 00:57:45;;;;;;;2.73;2.20;;;16.10;1.00;;;;;;6261465;28;20319;-54
2022/09/06 01:00:53;;;;;;;3.00;1.90;;;16.00;1.00;;;;;;6261138;28;20241;-55
2022/09/06 01:03:57;;;;;;;2.33;2.23;;;16.00;1.00;;;;;;6271847;28;20239;-53
2022/09/06 01:07:06;;;;;;;2.10;2.10;;;16.00;1.00;;;;;;6269674;28;20238;-55
2022/09/06 01:10:30;;;;;;;2.27;2.17;;;15.90;1.00;;;;;;6275978;28;20322;-54
2022/09/06 01:13:48;;;;;;;2.30;2.20;;;15.90;1.00;;;;;;6279825;28;20645;-54
2022/09/06 01:16:57;;;;;;;2.10;2.00;;;15.90;1.00;;;;;;6260602;28;20245;-55
2022/09/06 01:20:32;;;;;;;3.23;2.23;;;15.90;1.00;;;;;;6269277;28;20328;-54
2022/09/06 01:24:07;;;;;;;5.50;2.00;;;15.90;1.00;;;;;;6259555;28;20428;-54
2022/09/06 01:27:52;;;;;;;2.27;2.00;;;15.80;1.00;;;;;;6259370;28;20380;-53
2022/09/06 01:31:04;;;;;;;2.30;1.90;;;15.80;1.00;;;;;;6260703;28;20419;-55
2022/09/06 01:34:24;;;;;;;4.37;2.50;;;15.80;1.00;;;;;;6275562;28;20718;-54
2022/09/06 01:37:27;;;;;;;7.87;2.23;;;15.70;1.00;;;;;;6278935;28;20320;-54
2022/09/06 01:40:34;;;;;;;2.50;2.30;;;15.70;1.00;;;;;;6277575;28;20584;-53
2022/09/06 01:43:42;;;;;;;2.43;2.23;;;15.70;1.00;;;;;;6282072;28;20240;-53
2022/09/06 01:46:54;;;;;;;5.50;2.60;;;15.70;1.00;;;;;;6284506;28;20248;-54
2022/09/06 01:50:18;;;;;;;1.90;1.80;;;15.70;1.00;;;;;;6283302;28;20257;-54
2022/09/06 01:53:46;;;;;;;2.70;2.20;;;15.70;1.00;;;;;;6265641;28;20238;-54
2022/09/06 01:56:59;;;;;;;2.10;2.00;;;15.70;1.00;;;;;;6284761;28;20727;-55
2022/09/06 02:00:07;;;;;;;7.63;2.40;;;15.70;1.00;;;;;;6284684;28;20321;-54
2022/09/06 02:03:17;;;;;;;2.07;1.80;;;15.70;1.00;;;;;;6277915;28;20604;-54
2022/09/06 02:06:26;;;;;;;2.23;2.20;;;15.80;1.00;;;;;;6283643;28;20313;-54
2022/09/06 02:09:36;;;;;;;2.27;2.17;;;15.80;1.00;;;;;;6276249;28;21874;-54
2022/09/06 02:12:43;;;;;;;4.97;2.10;;;15.80;1.00;;;;;;6258983;28;20285;-55
2022/09/06 02:16:01;;;;;;;5.50;2.00;;;15.80;1.00;;;;;;6258771;28;20610;-54
2022/09/06 02:19:09;;;;;;;2.80;2.47;;;15.70;1.00;;;;;;6278060;28;20380;-55
2022/09/06 02:22:17;;;;;;;2.20;2.10;;;15.70;1.00;;;;;;6290724;28;20237;-54
2022/09/06 02:25:26;;;;;;;3.77;2.30;;;15.60;1.00;;;;;;6281961;28;20232;-50
2022/09/06 02:28:29;;;;;;;2.00;2.00;;;15.60;1.00;;;;;;6276989;28;20408;-54
2022/09/06 02:31:37;;;;;;;2.60;2.40;;;15.50;1.00;;;;;;6283378;28;20255;-55
2022/09/06 02:34:42;;;;;;;2.67;2.50;;;15.50;1.00;;;;;;6277515;28;20840;-53
2022/09/06 02:37:45;;;;;;;2.40;2.27;;;15.50;1.00;;;;;;6282629;28;20663;-54
2022/09/06 02:40:50;;;;;;;2.10;2.10;;;15.50;1.00;;;;;;6275583;28;20429;-54
2022/09/06 02:43:53;;;;;;;2.93;2.37;;;15.50;1.00;;;;;;6258924;28;20233;-55
2022/09/06 02:46:57;;;;;;;2.63;2.20;;;15.40;1.00;;;;;;6258518;28;20324;-53
2022/09/06 02:49:59;;;;;;;3.23;2.20;;;15.40;1.00;;;;;;6273501;28;20237;-54
2022/09/06 02:53:05;;;;;;;2.77;2.50;;;15.30;1.00;;;;;;6283099;28;20233;-54
2022/09/06 02:56:08;;;;;;;2.67;2.47;;;15.30;1.00;;;;;;6272841;28;20363;-54
2022/09/06 02:59:11;;;;;;;2.50;2.23;;;15.20;1.00;;;;;;6274599;28;20320;-54
2022/09/06 03:02:21;;;;;;;2.83;2.47;;;15.20;1.00;;;;;;6282381;28;20790;-54
2022/09/06 03:05:26;;;;;;;2.40;2.30;;;15.20;1.00;;;;;;6282465;28;20239;-54
2022/09/06 03:08:39;;;;;;;2.40;2.20;;;15.20;1.00;;;;;;6282260;28;20751;-52
2022/09/06 03:11:42;;;;;;;4.33;2.20;;;15.10;1.00;;;;;;6276467;28;20244;-55
2022/09/06 03:14:45;;;;;;;2.87;2.30;;;15.10;1.00;;;;;;6271169;28;20248;-55
2022/09/06 03:17:49;;;;;;;2.33;2.23;;;15.20;1.00;;;;;;6285025;28;20731;-54
2022/09/06 03:20:53;;;;;;;2.53;2.33;;;15.10;1.00;;;;;;6292227;28;20882;-54
2022/09/06 03:23:58;;;;;;;2.40;2.30;;;15.10;1.00;;;;;;6277172;28;20240;-53
2022/09/06 03:27:01;;;;;;;2.50;2.40;;;15.00;1.00;;;;;;6276805;28;20234;-54
2022/09/06 03:30:05;;;;;;;2.77;2.30;;;15.00;1.00;;;;;;6269866;28;20705;-54
2022/09/06 03:33:09;;;;;;;2.23;2.20;;;15.00;1.00;;;;;;6264354;28;20942;-54
2022/09/06 03:36:12;;;;;;;2.23;2.23;;;15.10;1.00;;;;;;6276267;28;20530;-54
2022/09/06 03:39:15;;;;;;;2.90;2.40;;;15.00;1.00;;;;;;6280892;28;20230;-54
2022/09/06 03:42:18;;;;;;;2.43;2.20;;;15.00;1.00;;;;;;6272388;28;20413;-54
2022/09/06 03:45:21;;;;;;;2.67;2.47;;;15.00;1.00;;;;;;6281588;28;20233;-54
2022/09/06 03:48:27;;;;;;;2.50;2.40;;;14.90;1.00;;;;;;6279315;28;20241;-59
2022/09/06 03:51:30;;;;;;;3.90;2.40;;;15.00;1.00;;;;;;6276744;28;20244;-55
2022/09/06 03:54:33;;;;;;;2.33;2.33;;;15.00;1.00;;;;;;6289467;28;20282;-54
2022/09/06 03:57:36;;;;;;;3.30;2.20;;;14.90;1.00;;;;;;6274177;28;20707;-53
2022/09/06 04:00:39;;;;;;;3.13;2.50;;;14.90;1.00;;;;;;6279093;28;20487;-54
2022/09/06 04:03:43;;;;;;;2.70;2.50;;;14.90;1.00;;;;;;6281042;28;20225;-53
2022/09/06 04:06:46;;;;;;;2.30;2.20;;;14.90;1.00;;;;;;6262222;28;20689;-54
2022/09/06 04:09:48;;;;;;;2.90;2.60;;;14.90;1.00;;;;;;6277001;28;20229;-55
2022/09/06 04:12:52;;;;;;;2.53;2.33;;;14.80;1.00;;;;;;6277340;28;20324;-54
2022/09/06 04:15:55;;;;;;;2.43;2.33;;;14.80;1.00;;;;;;6282313;28;20281;-54
2022/09/06 04:19:00;;;;;;;3.27;2.40;;;14.80;1.00;;;;;;6282522;28;20716;-53
2022/09/06 04:22:03;;;;;;;4.57;2.50;;;14.80;1.00;;;;;;6285991;28;20303;-54
2022/09/06 04:25:07;;;;;;;2.43;2.33;;;14.70;1.00;;;;;;6284669;28;20233;-54
2022/09/06 04:28:10;;;;;;;2.40;2.30;;;14.80;1.00;;;;;;6282392;28;20686;-53
2022/09/06 04:31:13;;;;;;;2.30;2.30;;;14.70;1.00;;;;;;6279519;28;20772;-54
2022/09/06 04:34:18;;;;;;;2.43;2.33;;;14.80;1.00;;;;;;6283771;28;20702;-55
2022/09/06 04:37:21;;;;;;;3.20;2.60;;;14.70;1.00;;;;;;6277964;28;20643;-53
2022/09/06 04:40:24;;;;;;;4.00;2.70;;;14.70;1.00;;;;;;6281839;28;20802;-53
2022/09/06 04:43:27;;;;;;;2.37;2.27;;;14.60;1.00;;;;;;6249823;28;20426;-52
2022/09/06 04:46:30;;;;;;;2.73;2.63;;;14.60;1.00;;;;;;6286067;28;20721;-55
2022/09/06 04:49:42;;;;;;;3.83;2.70;;;14.60;1.00;;;;;;6284656;28;20237;-54
2022/09/06 04:52:45;;;;;;;6.73;2.50;;;14.60;1.00;;;;;;6285361;28;20356;-53
2022/09/06 04:55:49;;;;;;;2.67;2.50;;;14.60;1.00;;;;;;6288363;28;20320;-54
2022/09/06 04:58:53;;;;;;;2.87;2.60;;;14.60;1.00;;;;;;6281666;28;20226;-54
2022/09/06 05:01:56;;;;;;;2.87;2.67;;;14.50;1.00;;;;;;6274895;28;20420;-56
2022/09/06 05:05:01;;;;;;;4.40;2.30;;;14.60;1.00;;;;;;6286805;28;20259;-53
2022/09/06 05:08:03;;;;;;;2.50;2.40;;;14.60;1.00;;;;;;6281872;28;20264;-53
2022/09/06 05:11:07;;;;;;;3.07;2.40;;;14.60;1.00;;;;;;6282017;28;20245;-58
2022/09/06 05:14:10;;;;;;;5.90;2.93;;;14.60;1.00;;;;;;6286167;28;20463;-54
2022/09/06 05:17:13;;;;;;;6.90;2.90;;;14.70;1.00;;;;;;6276635;28;20233;-55
2022/09/06 05:20:17;;;;;;;2.83;2.60;;;14.70;1.00;;;;;;6285490;28;20247;-54
2022/09/06 05:23:21;;;;;;;3.70;2.73;;;14.70;1.00;;;;;;6284907;28;20619;-54
2022/09/06 05:26:24;;;;;;;2.53;2.40;;;14.70;1.00;;;;;;6286485;28;20296;-54
2022/09/06 05:29:26;;;;;;;2.50;2.40;;;14.80;1.00;;;;;;6283038;28;20503;-54
2022/09/06 05:32:32;;;;;;;3.07;2.80;;;14.80;1.00;;;;;;6277812;28;20237;-54
2022/09/06 05:35:36;;;;;;;6.17;3.03;;;14.80;1.00;;;;;;6281177;28;20235;-53
2022/09/06 05:38:39;;;;;;;2.50;2.50;;;14.90;1.00;;;;;;6292329;28;20261;-54
2022/09/06 05:41:42;;;;;;;5.13;3.00;;;14.90;1.00;;;;;;6275163;28;20287;-56
2022/09/06 05:44:45;;;;;;;6.37;2.87;;;15.00;1.00;;;;;;6283267;28;20225;-53
2022/09/06 05:47:48;;;;;;;2.80;2.53;;;15.00;1.00;;;;;;6283496;28;20729;-54
2022/09/06 05:51:01;;;;;;;2.70;2.60;;;15.10;1.00;;;;;;6280072;28;20243;-54
2022/09/06 05:54:05;;;;;;;3.40;2.50;;;15.10;1.00;;;;;;6283371;28;20237;-53
2022/09/06 05:57:08;;;;;;;2.73;2.53;;;15.10;1.00;;;;;;6286330;28;20237;-54
2022/09/06 06:00:13;;;;;;;2.40;2.30;;;15.20;1.00;;;;;;6279750;28;20241;-54
2022/09/06 06:03:16;;;;;;;2.40;2.30;;;15.30;1.00;;;;;;6275100;28;20332;-54
2022/09/06 06:06:21;;;;;;;3.60;2.30;;;15.40;1.00;;;;;;6282599;28;20720;-54
2022/09/06 06:09:27;;;;;;;2.47;2.43;;;15.40;1.00;;;;;;6282963;28;20822;-54
2022/09/06 06:12:30;;;;;;;6.30;2.73;;;15.50;1.00;;;;;;6279930;28;20504;-54
2022/09/06 06:15:32;;;;;;;2.60;2.50;;;15.70;1.00;;;;;;6278762;28;20237;-54
2022/09/06 06:18:36;;;;;;;2.60;2.40;;;15.80;1.00;;;;;;6279740;28;20229;-54
2022/09/06 06:21:40;;;;;;;2.93;2.73;;;15.80;1.00;;;;;;6281969;28;20280;-55
2022/09/06 06:24:43;;;;;;;3.30;2.80;;;15.80;1.00;;;;;;6277731;28;20737;-54
2022/09/06 06:27:58;;;;;;;3.23;2.47;;;15.80;1.00;;;;;;6292140;28;20240;-54
2022/09/06 06:31:00;;;;;;;8.10;2.77;;;16.00;1.00;;;;;;6275688;28;20325;-54
2022/09/06 06:34:05;;;;;;;6.17;2.57;;;16.20;1.00;;;;;;6275188;28;20504;-54
2022/09/06 06:37:10;;;;;;;2.57;2.00;;;16.20;1.00;;;;;;6281067;28;20791;-53
2022/09/06 06:40:13;;;;;;;3.90;2.30;;;16.30;1.00;;;;;;6287024;28;20872;-53
2022/09/06 06:43:17;;;;;;;4.33;2.63;;;16.40;1.00;;;;;;6292444;28;20447;-55
2022/09/06 06:46:22;;;;;;;2.93;2.80;;;16.40;1.00;;;;;;6280768;28;20262;-54
2022/09/06 06:49:25;;;;;;;4.37;2.70;;;16.50;1.00;;;;;;6272097;28;20326;-54
2022/09/06 06:52:29;;;;;;;6.27;3.00;;;16.60;1.00;;;;;;6292543;28;20379;-53
2022/09/06 06:55:32;;;;;;;3.40;2.67;;;16.70;1.00;;;;;;6284398;28;20375;-52
2022/09/06 06:58:35;;;;;;;2.80;2.50;;;17.10;1.00;;;;;;6280683;28;20752;-53
2022/09/06 07:01:38;;;;;;;5.10;2.80;;;17.30;1.00;;;;;;6279073;28;20319;-54
2022/09/06 07:04:41;;;;;;;3.47;2.50;;;17.30;1.00;;;;;;6278054;28;20230;-54
2022/09/06 07:07:46;;;;;;;2.53;2.43;;;17.30;1.00;;;;;;6275508;28;20800;-54
2022/09/06 07:10:51;;;;;;;5.30;2.77;;;17.20;1.00;;;;;;6280553;28;20233;-53
2022/09/06 07:13:57;;;;;;;3.20;2.83;;;17.20;1.00;;;;;;6279241;28;20371;-53
2022/09/06 07:17:00;;;;;;;3.33;2.70;;;17.30;1.00;;;;;;6279916;28;20461;-53
2022/09/06 07:20:09;;;;;;;5.17;2.40;;;17.30;1.00;;;;;;6281990;28;20785;-55
2022/09/06 07:23:19;;;;;;;5.43;2.60;;;17.20;1.00;;;;;;6288052;28;20308;-54
2022/09/06 07:26:42;;;;;;;2.93;2.77;;;17.30;1.00;;;;;;6277122;28;20245;-54
2022/09/06 07:30:06;;;;;;;3.10;2.47;;;17.40;1.00;;;;;;6280741;28;20606;-54
2022/09/06 07:33:09;;;;;;;2.80;2.70;;;17.50;1.00;;;;;;6273993;28;20500;-54
2022/09/06 07:36:12;;;;;;;5.30;2.70;;;17.50;1.00;;;;;;6278751;28;20344;-54
2022/09/06 07:39:16;;;;;;;3.00;2.77;;;17.60;1.00;;;;;;6279641;28;20529;-53
2022/09/06 07:42:19;;;;;;;3.13;2.80;;;17.70;1.00;;;;;;6281105;28;20796;-54
2022/09/06 07:45:21;;;;;;;5.90;2.80;;;17.70;1.00;;;;;;6279710;28;20710;-54
2022/09/06 07:48:24;;;;;;;5.90;3.23;;;17.70;1.00;;;;;;6273428;28;20233;-54
2022/09/06 07:51:28;;;;;;;5.73;3.27;;;17.80;1.00;;;;;;6287587;28;20726;-52
2022/09/06 07:54:32;;;;;;;5.90;2.80;;;17.90;1.00;;;;;;6281605;28;20287;-54
2022/09/06 07:57:35;;;;;;;6.60;3.07;;;18.10;1.00;;;;;;6286374;28;20308;-54
2022/09/06 08:00:39;;;;;;;2.83;2.67;;;18.10;1.00;;;;;;6285356;28;20237;-54
2022/09/06 08:03:43;;;;;;;3.90;2.83;;;18.10;1.00;;;;;;6279996;28;20476;-54
2022/09/06 08:06:49;;;;;;;3.97;3.20;;;18.20;1.00;;;;;;6286206;28;20693;-54
2022/09/06 08:10:14;;;;;;;3.03;2.83;;;18.30;1.00;;;;;;6284621;28;20252;-52
2022/09/06 08:13:20;;;;;;;3.37;3.10;;;18.20;1.00;;;;;;6274286;28;20246;-53
2022/09/06 08:16:26;;;;;;;4.00;3.23;;;18.20;1.00;;;;;;6288697;28;20234;-53
2022/09/06 08:19:29;;;;;;;4.63;3.27;;;18.30;1.00;;;;;;6288737;28;20263;-53
2022/09/06 08:22:33;;;;;;;4.77;2.93;;;18.40;1.00;;;;;;6277080;28;20237;-54
2022/09/06 08:25:37;;;;;;;3.63;3.20;;;18.40;1.00;;;;;;6292092;28;20241;-53
2022/09/06 08:28:40;;;;;;;3.80;3.30;;;18.40;1.00;;;;;;6285236;28;20319;-54
2022/09/06 08:31:44;;;;;;;4.43;3.00;;;18.50;1.00;;;;;;6267926;28;20540;-54
2022/09/06 08:34:58;;;;;;;4.93;3.40;;;18.60;1.00;;;;;;6283087;28;20237;-54
2022/09/06 08:38:01;;;;;;;3.67;3.47;;;18.70;1.00;;;;;;6284761;28;20824;-55
2022/09/06 08:41:11;;;;;;;5.03;3.40;;;18.70;1.00;;;;;;6285867;28;20244;-53
2022/09/06 08:44:18;;;;;;;5.00;3.40;;;18.80;1.00;;;;;;6280485;28;20313;-51
2022/09/06 08:47:41;;;;;;;3.57;3.37;;;18.90;1.00;;;;;;6283984;28;20244;-54
2022/09/06 08:50:51;;;;;;;4.60;3.20;;;18.90;1.00;;;;;;6284248;28;20371;-53
2022/09/06 08:54:00;;;;;;;3.77;3.47;;;19.00;1.00;;;;;;6282963;28;20233;-55
2022/09/06 08:57:12;;;;;;;3.33;3.00;;;19.10;1.00;;;;;;6283062;28;20708;-53
2022/09/06 09:00:15;;;;;;;4.70;3.73;;;19.20;1.00;;;;;;6284967;28;20886;-53
2022/09/06 09:03:22;;;;;;;3.40;3.10;;;19.20;1.00;;;;;;6286276;28;20733;-55
2022/09/06 09:06:26;;;;;;;3.80;3.50;;;19.10;1.00;;;;;;6285335;28;20263;-54
2022/09/06 09:09:32;;;;;;;3.63;3.33;;;19.30;1.00;;;;;;6285162;28;20316;-54
2022/09/06 09:12:44;;;;;;;4.13;3.70;;;19.30;1.00;;;;;;6281905;28;20836;-53
2022/09/06 09:15:47;;;;;;;3.27;3.03;;;19.40;1.00;;;;;;6282302;28;20248;-53
2022/09/06 09:18:53;;;;;;;6.17;3.83;;;19.60;1.00;;;;;;6281914;28;20388;-53
2022/09/06 09:21:56;;;;;;;4.13;3.73;;;19.70;1.00;;;;;;6283975;28;20264;-53
2022/09/06 09:25:01;;;;;;;4.30;3.47;;;19.80;1.00;;;;;;6280047;28;20300;-54
2022/09/06 09:28:14;;;;;;;4.03;3.60;;;19.90;1.00;;;;;;6283550;28;20230;-53
2022/09/06 09:31:33;;;;;;;5.20;3.27;;;20.00;1.00;;;;;;6281598;28;20799;-53
2022/09/06 09:34:39;;;;;;;3.67;3.07;;;20.10;1.00;;;;;;6273043;28;20230;-53
2022/09/06 09:37:42;;;;;;;3.70;3.50;;;20.10;1.00;;;;;;6282750;28;20719;-53
2022/09/06 09:40:52;;;;;;;3.77;3.47;;;20.20;1.00;;;;;;6284601;28;20287;-52
2022/09/06 09:43:57;;;;;;;12.53;4.10;;;20.30;1.00;;;;;;6257464;28;20260;-46
2022/09/06 09:47:23;;;;;;;4.20;3.73;;;20.40;1.00;;;;;;6278801;28;20237;-55
2022/09/06 09:50:29;;;;;;;4.53;3.57;;;20.50;1.00;;;;;;6290670;28;20252;-53
2022/09/06 09:53:32;;;;;;;3.57;3.23;;;20.60;1.00;;;;;;6282844;28;20603;-53
2022/09/06 09:56:45;;;;;;;3.60;3.40;;;20.60;1.00;;;;;;6293268;28;20383;-52
2022/09/06 09:59:52;;;;;;;5.67;3.47;;;20.90;1.00;;;;;;6282717;28;20319;-54
2022/09/06 10:02:58;;;;;;;3.80;3.50;;;20.90;1.00;;;;;;6282032;28;20368;-53
2022/09/06 10:06:01;;;;;;;4.13;3.40;;;21.10;1.00;;;;;;6281937;28;20256;-54
2022/09/06 10:09:19;;;;;;;3.93;3.50;;;21.00;1.00;;;;;;6281930;28;20659;-54
2022/09/06 10:12:29;;;;;;;4.93;3.57;;;21.30;1.00;;;;;;6276871;28;20303;-53
2022/09/06 10:15:38;;;;;;;4.20;4.00;;;21.40;1.00;;;;;;6276211;28;20262;-53
2022/09/06 10:18:43;;;;;;;9.97;4.30;;;21.30;1.00;;;;;;6282204;28;20229;-53
2022/09/06 10:21:46;;;;;;;5.83;4.43;;;21.40;1.00;;;;;;6280339;28;20764;-54
2022/09/06 10:25:22;;;;;;;7.67;4.43;;;21.40;1.00;;;;;;6280781;28;20233;-54
2022/09/06 10:28:30;;;;;;;4.40;4.03;;;21.50;1.00;;;;;;6289129;28;20709;-54
2022/09/06 10:31:58;;;;;;;4.30;3.90;;;21.50;1.00;;;;;;6281404;28;20244;-56
2022/09/06 10:35:19;;;;;;;7.40;4.40;;;21.60;1.00;;;;;;6275345;28;20340;-52
2022/09/06 10:38:37;;;;;;;4.70;4.13;;;21.60;1.00;;;;;;6275092;28;20280;-53
2022/09/06 10:41:57;;;;;;;4.40;4.00;;;21.70;1.00;;;;;;6274740;28;20324;-54
2022/09/06 10:45:28;;;;;;;4.57;4.00;;;21.80;1.00;;;;;;6274656;28;20234;-53
2022/09/06 10:48:37;;;;;;;4.53;4.00;;;21.90;1.00;;;;;;6275070;28;20237;-54
2022/09/06 10:51:44;;;;;;;5.80;4.40;;;21.80;1.00;;;;;;6276806;28;20819;-54
2022/09/06 10:54:47;;;;;;;4.37;4.00;;;21.80;1.00;;;;;;6271033;28;20222;-53
2022/09/06 10:57:58;;;;;;;4.00;3.80;;;21.80;1.00;;;;;;6282451;28;20312;-53
2022/09/06 11:01:27;;;;;;;12.60;4.77;;;21.80;1.00;;;;;;6282201;28;20780;-54
2022/09/06 11:04:35;;;;;;;4.23;4.00;;;21.90;1.00;;;;;;6286410;28;20312;-54
2022/09/06 11:08:02;;;;;;;4.90;4.30;;;22.00;1.00;;;;;;6291382;28;20359;-53
2022/09/06 11:11:34;;;;;;;4.77;4.30;;;21.90;1.00;;;;;;6278006;28;20377;-54
2022/09/06 11:14:38;;;;;;;4.80;3.77;;;22.00;1.00;;;;;;6285223;28;20384;-53
2022/09/06 11:17:48;;;;;;;5.20;4.13;;;22.20;1.00;;;;;;6281096;28;20274;-53
2022/09/06 11:21:09;;;;;;;7.10;4.53;;;22.20;1.00;;;;;;6278361;28;20316;-54
2022/09/06 11:24:14;;;;;;;6.80;4.10;;;22.40;1.00;;;;;;6280581;28;20326;-54
2022/09/06 11:27:25;;;;;;;4.83;3.70;;;22.50;1.00;;;;;;6279676;28;20269;-54
2022/09/06 11:30:30;;;;;;;4.63;4.30;;;22.50;1.00;;;;;;6276373;28;20312;-54
2022/09/06 11:33:38;;;;;;;5.00;3.83;;;22.50;1.00;;;;;;6279639;28;20241;-54
2022/09/06 11:36:48;;;;;;;6.50;4.10;;;22.50;1.00;;;;;;6273500;28;20366;-54
2022/09/06 11:40:05;;;;;;;4.60;4.13;;;22.50;1.00;;;;;;6275769;28;20234;-54
2022/09/06 11:43:49;;;;;;;4.50;4.13;;;22.40;1.00;;;;;;6276293;28;20233;-54
2022/09/06 11:47:00;;;;;;;8.97;4.03;;;22.30;1.00;;;;;;6271885;28;20264;-54
2022/09/06 11:50:26;;;;;;;7.57;4.30;;;22.20;1.00;;;;;;6274287;28;20245;-53
2022/09/06 11:53:33;;;;;;;4.00;3.80;;;22.30;1.00;;;;;;6274254;28;20630;-54
2022/09/06 11:56:53;;;;;;;4.17;3.97;;;22.20;1.00;;;;;;6268573;28;20321;-55
2022/09/06 12:00:02;;;;;;;4.73;4.23;;;22.20;1.00;;;;;;6279201;28;20317;-53
2022/09/06 12:03:08;;;;;;;4.30;4.10;;;22.20;1.00;;;;;;6279742;28;20229;-53
2022/09/06 12:06:34;;;;;;;4.97;4.47;;;22.20;1.00;;;;;;6281317;28;20239;-54
2022/09/06 12:09:39;;;;;;;5.00;4.40;;;22.20;1.00;;;;;;6270284;28;20237;-52
2022/09/06 12:12:49;;;;;;;6.00;4.00;;;22.20;1.00;;;;;;6277365;28;20377;-59
2022/09/06 12:15:55;;;;;;;6.90;4.50;;;22.20;1.00;;;;;;6279232;28;20276;-54
2022/09/06 12:19:00;;;;;;;4.30;4.00;;;22.30;1.00;;;;;;6279129;28;20237;-54
2022/09/06 12:22:23;;;;;;;10.63;4.70;;;22.40;1.00;;;;;;6278835;28;20371;-53
2022/09/06 12:25:54;;;;;;;4.10;3.80;;;22.50;1.00;;;;;;6280670;28;20739;-54
2022/09/06 12:28:59;;;;;;;5.97;4.37;;;22.60;1.00;;;;;;6276563;28;20733;-53
2022/09/06 12:32:04;;;;;;;5.23;4.67;;;22.60;1.00;;;;;;6281294;28;20233;-54
2022/09/06 12:35:14;;;;;;;8.23;4.10;;;22.60;1.00;;;;;;6273315;28;20233;-55
2022/09/06 12:38:37;;;;;;;4.63;4.33;;;22.60;1.00;;;;;;6277819;28;20318;-53
2022/09/06 12:41:47;;;;;;;5.17;4.43;;;22.60;1.00;;;;;;6285613;28;20359;-53
2022/09/06 12:44:52;;;;;;;4.60;4.27;;;22.80;1.00;;;;;;6280907;28;20387;-53
2022/09/06 12:48:07;;;;;;;4.63;4.20;;;22.80;1.00;;;;;;6284469;28;20319;-54
2022/09/06 12:51:18;;;;;;;4.93;4.47;;;22.90;1.00;;;;;;6286602;28;20245;-54
2022/09/06 12:54:25;;;;;;;4.83;4.47;;;22.90;1.00;;;;;;6276397;28;20241;-54
2022/09/06 12:57:30;;;;;;;5.50;5.00;;;22.90;1.00;;;;;;6286853;28;20714;-55
2022/09/06 13:00:39;;;;;;;5.90;4.43;;;22.90;1.00;;;;;;6282673;28;20752;-54
2022/09/06 13:03:47;;;;;;;5.07;4.77;;;22.90;1.00;;;;;;6283896;28;20395;-55
2022/09/06 13:06:55;;;;;;;9.67;4.60;;;22.90;1.00;;;;;;6285565;28;20502;-53
2022/09/06 13:09:58;;;;;;;6.80;4.97;;;23.00;1.00;;;;;;6284476;28;20393;-53
2022/09/06 13:13:03;;;;;;;4.97;4.47;;;23.10;1.00;;;;;;6281159;28;20237;-54
2022/09/06 13:16:06;;;;;;;10.20;4.80;;;23.20;1.00;;;;;;6284915;28;20237;-53
2022/09/06 13:19:14;;;;;;;5.63;4.80;;;23.20;1.00;;;;;;6286138;28;20472;-53
2022/09/06 13:22:51;;;;;;;4.33;4.13;;;23.30;1.00;;;;;;6278683;28;20820;-54
2022/09/06 13:25:55;;;;;;;5.70;4.97;;;23.50;1.00;;;;;;6281081;28;20237;-54
2022/09/06 13:29:22;;;;;;;6.50;4.63;;;23.60;1.00;;;;;;6291054;28;20286;-54
2022/09/06 13:32:26;;;;;;;4.77;4.47;;;23.70;1.00;;;;;;6276598;28;20315;-54
2022/09/06 13:35:31;;;;;;;5.13;4.80;;;23.70;1.00;;;;;;6274256;28;20597;-53
2022/09/06 13:38:39;;;;;;;5.20;4.70;;;23.80;1.00;;;;;;6277137;28;21478;-55
2022/09/06 13:41:44;;;;;;;4.67;4.40;;;23.60;1.00;;;;;;6288438;28;20234;-53
2022/09/06 13:44:49;;;;;;;7.33;5.07;;;23.70;1.00;;;;;;6282690;28;20230;-55
2022/09/06 13:47:53;;;;;;;5.77;4.50;;;23.70;1.00;;;;;;6281276;28;20845;-53
2022/09/06 13:51:17;;;;;;;7.17;4.90;;;23.70;1.00;;;;;;6257757;28;20238;-53
2022/09/06 13:54:21;;;;;;;5.40;5.20;;;23.80;1.00;;;;;;6273790;28;20737;-54
2022/09/06 13:57:25;;;;;;;4.90;4.60;;;23.80;1.00;;;;;;6283253;28;20331;-53
2022/09/06 14:00:31;;;;;;;5.30;5.00;;;24.00;1.00;;;;;;6281800;28;20241;-53
2022/09/06 14:03:34;;;;;;;5.13;4.80;;;24.10;1.00;;;;;;6277314;28;20237;-52
2022/09/06 14:06:37;;;;;;;5.20;5.00;;;24.10;1.00;;;;;;6285700;28;20324;-54
2022/09/06 14:09:50;;;;;;;4.97;4.60;;;24.30;1.00;;;;;;6282141;28;20257;-54
2022/09/06 14:12:53;;;;;;;5.87;5.20;;;24.30;1.00;;;;;;6282495;28;20724;-54
2022/09/06 14:15:58;;;;;;;5.20;4.80;;;24.50;1.00;;;;;;6282202;28;20328;-56
2022/09/06 14:19:01;;;;;;;5.17;4.87;;;24.60;1.00;;;;;;6281518;28;20472;-54
2022/09/06 14:22:05;;;;;;;5.60;5.27;;;24.50;1.00;;;;;;6282421;28;20241;-54
2022/09/06 14:25:11;;;;;;;5.10;4.80;;;24.40;1.00;;;;;;6283215;28;20308;-52
2022/09/06 14:28:14;;;;;;;5.30;4.90;;;24.30;1.00;;;;;;6277960;28;20320;-54
2022/09/06 14:31:20;;;;;;;5.50;4.83;;;24.30;1.00;;;;;;6282536;28;20312;-55
2022/09/06 14:34:24;;;;;;;5.70;5.23;;;24.30;1.00;;;;;;6272424;28;20623;-53
2022/09/06 14:37:27;;;;;;;6.10;5.47;;;24.50;1.00;;;;;;6281504;28;20240;-54
2022/09/06 14:40:35;;;;;;;6.07;4.83;;;24.50;1.00;;;;;;6277606;28;20264;-55
2022/09/06 14:43:38;;;;;;;4.77;4.50;;;24.50;1.00;;;;;;6281575;28;20245;-53
2022/09/06 14:46:42;;;;;;;6.50;5.50;;;24.50;1.00;;;;;;6287877;28;20237;-54
2022/09/06 14:49:46;;;;;;;5.20;4.77;;;24.40;1.00;;;;;;6279660;28;20257;-54
2022/09/06 14:52:49;;;;;;;5.30;4.93;;;24.40;1.00;;;;;;6281279;28;20233;-53
2022/09/06 14:55:51;;;;;;;5.27;5.00;;;24.30;1.00;;;;;;6281484;28;20577;-54
2022/09/06 14:58:56;;;;;;;6.40;5.23;;;24.30;1.00;;;;;;6278342;28;20237;-54
2022/09/06 15:02:01;;;;;;;7.27;5.47;;;24.40;1.00;;;;;;6285265;28;20325;-53
2022/09/06 15:05:05;;;;;;;5.67;5.10;;;24.40;1.00;;;;;;6290532;28;20327;-53
2022/09/06 15:08:08;;;;;;;5.60;5.20;;;24.40;1.00;;;;;;6281194;28;20729;-54
2022/09/06 15:11:11;;;;;;;5.40;5.10;;;24.30;1.00;;;;;;6279325;28;20380;-54
2022/09/06 15:14:16;;;;;;;5.37;4.87;;;24.30;1.00;;;;;;6280483;28;20618;-47
2022/09/06 15:17:20;;;;;;;5.10;4.63;;;24.20;1.00;;;;;;6289501;28;20230;-53
2022/09/06 15:20:23;;;;;;;6.00;4.90;;;24.00;1.00;;;;;;6292662;28;20241;-53
2022/09/06 15:23:27;;;;;;;5.60;4.97;;;23.90;1.00;;;;;;6280617;28;20236;-55
2022/09/06 15:26:31;;;;;;;4.80;4.47;;;23.60;1.00;;;;;;6280619;28;20233;-53
2022/09/06 15:29:34;;;;;;;5.53;5.23;;;23.50;1.00;;;;;;6276918;28;20405;-53
2022/09/06 15:32:51;;;;;;;6.20;5.53;;;23.40;1.00;;;;;;6279888;28;20482;-54
2022/09/06 15:35:55;;;;;;;5.83;5.43;;;23.30;1.00;;;;;;6268743;28;20710;-53
2022/09/06 15:39:00;;;;;;;5.33;4.87;;;23.20;1.00;;;;;;6277859;28;20257;-53
2022/09/06 15:42:04;;;;;;;4.87;4.43;;;23.10;1.00;;;;;;6257114;28;20356;-54
2022/09/06 15:45:08;;;;;;;5.73;4.90;;;23.00;1.00;;;;;;6273028;28;20289;-52
2022/09/06 15:48:14;;;;;;;5.37;4.97;;;22.90;1.00;;;;;;6279953;28;20567;-53
2022/09/06 15:51:19;;;;;;;6.87;4.30;;;22.90;1.00;;;;;;6280379;28;20324;-55
2022/09/06 15:55:54;;;;;;;4.97;4.60;;;22.80;1.00;;;;;;6277849;28;20726;-55
2022/09/06 15:57:47;;;;;;;4.50;4.30;;;22.80;1.00;;;;;;6278658;28;20317;-53
2022/09/06 16:01:00;;;;;;;4.87;4.60;;;22.70;1.00;;;;;;6276999;28;20703;-53
2022/09/06 16:04:06;;;;;;;4.80;4.60;;;22.70;1.00;;;;;;6287225;28;20730;-55
2022/09/06 16:07:10;;;;;;;4.73;4.50;;;22.70;1.00;;;;;;6279550;28;20237;-54
2022/09/06 16:10:13;;;;;;;5.63;4.93;;;22.60;1.00;;;;;;6275771;28;20332;-54
2022/09/06 16:13:16;;;;;;;6.27;4.90;;;22.50;1.00;;;;;;6284888;28;20241;-54
2022/09/06 16:16:20;;;;;;;9.37;5.00;;;22.40;1.00;;;;;;6285646;28;20297;-54
2022/09/06 16:19:24;;;;;;;5.20;4.80;;;22.40;1.00;;;;;;6285438;28;20263;-54
2022/09/06 16:22:29;;;;;;;6.00;5.37;;;22.30;1.00;;;;;;6282878;28;20251;-54
2022/09/06 16:25:32;;;;;;;5.10;4.90;;;22.30;1.00;;;;;;6300146;28;20233;-54
2022/09/06 16:28:37;;;;;;;5.00;4.60;;;22.20;1.00;;;;;;6286398;28;20239;-55
2022/09/06 16:31:40;;;;;;;6.00;4.77;;;22.10;1.00;;;;;;6285204;28;20246;-53